Flight Track Log - Related Links

Times and Time Zones

All times are in EST time to prevent confusion due to time zone crossing. See the N234CE flight status page for this flight to view local times or setup timezone preferences in your user account.

Time Position Orientation Groundspeed Altitude Reporting Facility
EST Latitude Longitude Course Direction KTS MPH feet Rate Location/Type
Wed 08:05:36 PM 67.0500 -150.3500 150° Southeast 150 173 8,100  Level Anchorage Center
Wed 08:06:36 PM 67.0167 -150.3333 169° South 120 138 9,400 1,450 Climbing Anchorage Center
Wed 08:07:36 PM 67.0000 -150.3000 142° Southeast 110 127 11,000 793 Climbing Anchorage Center
Wed 08:08:37 PM 66.9667 -150.2500 150° Southeast 120 138 11,000  Level Anchorage Center
Wed 08:09:37 PM 66.9333 -150.2000 150° Southeast 130 150 11,000  Level Anchorage Center
Wed 08:10:37 PM 66.8833 -150.1500 159° South 120 138 11,000  Level Anchorage Center
Wed 08:11:38 PM 66.8333 -150.0833 152° Southeast 190 219 11,000 -149 Level Anchorage Center
Wed 08:12:38 PM 66.7833 -150.0333 158° South 190 219 10,700 -350 Descending Anchorage Center
Wed 08:13:38 PM 66.7500 -149.9833 149° Southeast 180 207 10,300 -350 Descending Anchorage Center
Wed 08:14:38 PM 66.7000 -149.9333 158° South 170 196 10,000 -298 Descending Anchorage Center
Wed 08:15:39 PM 66.6667 -149.8667 142° Southeast 180 207 9,700 -248 Descending Anchorage Center
Wed 08:16:39 PM 66.6167 -149.8167 158° South 190 219 9,500 -350 Descending Anchorage Center
Wed 08:17:39 PM 66.5667 -149.7667 158° South 170 196 9,000 -248 Descending Anchorage Center
Wed 08:18:40 PM 66.5167 -149.7167 158° South 180 207 9,000  Level Anchorage Center
Wed 08:19:40 PM 66.4833 -149.6667 149° Southeast 180 207 9,000  Level Anchorage Center
Wed 08:20:41 PM 66.4333 -149.6167 158° South 150 173 9,000  Level Anchorage Center
Wed 08:21:41 PM 66.3833 -149.5833 165° South 190 219 9,000  Level Anchorage Center
Wed 08:22:41 PM 66.3500 -149.5333 149° Southeast 160 184 9,000 -99 Level Anchorage Center
Wed 08:23:42 PM 66.3167 -149.4833 149° Southeast 170 196 8,800 -347 Descending Anchorage Center
Wed 08:24:42 PM 66.2667 -149.4333 158° South 170 196 8,300 -400 Descending Anchorage Center
Wed 08:25:42 PM 66.2167 -149.3833 158° South 180 207 8,000 -298 Descending Anchorage Center
Wed 08:26:43 PM 66.1833 -149.3333 149° Southeast 170 196 7,700 -397 Descending Anchorage Center
Wed 08:27:43 PM 66.1333 -149.2833 158° South 180 207 7,200 -350 Descending Anchorage Center
Wed 08:28:43 PM 66.0833 -149.2333 158° South 180 207 7,000 -99 Descending Anchorage Center
Wed 08:29:44 PM 66.0333 -149.1833 158° South 170 196 7,000  Level Anchorage Center
Wed 08:30:44 PM 66.0000 -149.1333 149° Southeast 170 196 7,000  Level Anchorage Center
Wed 08:31:44 PM 65.9500 -149.0833 158° South 180 207 7,000 -50 Level Anchorage Center
Wed 08:32:45 PM 65.9167 -149.0333 149° Southeast 170 196 6,900 -50 Descending Anchorage Center
Wed 08:33:45 PM 65.8667 -148.9833 158° South 170 196 6,900  Level Anchorage Center
Wed 08:34:45 PM 65.8167 -148.9500 165° South 170 196 6,900  Level Anchorage Center
Wed 08:35:46 PM 65.7833 -148.9000 148° Southeast 170 196 6,900  Level Anchorage Center
Wed 08:36:46 PM 65.7333 -148.8500 158° South 170 196 6,900  Level Anchorage Center
Wed 08:37:46 PM 65.7000 -148.8000 148° Southeast 160 184 6,900  Level Anchorage Center
Wed 08:38:47 PM 65.6500 -148.7500 158° South 170 196 6,900  Level Anchorage Center
Wed 08:39:47 PM 65.6167 -148.7000 148° Southeast 170 196 6,900  Level Anchorage Center
Wed 08:40:48 PM 65.5667 -148.6500 158° South 170 196 6,900  Level Anchorage Center
Wed 08:41:48 PM 65.5333 -148.6000 148° Southeast 170 196 6,900 -100 Level Anchorage Center
Wed 08:42:48 PM 65.4833 -148.5667 165° South 170 196 6,700 -250 Descending Anchorage Center
Wed 08:43:48 PM 65.4500 -148.5167 148° Southeast 180 207 6,400 -298 Descending Anchorage Center
Wed 08:44:49 PM 65.4000 -148.4667 157° South 170 196 6,100 -248 Descending Anchorage Center
Wed 08:45:49 PM 65.3500 -148.4167 157° South 170 196 5,900 -300 Descending Anchorage Center
Wed 08:46:49 PM 65.3167 -148.3667 148° Southeast 180 207 5,500 -400 Descending Anchorage Center

Login

Don't have an account? Register now (free) for customized features, flight alerts, and more!